createdAt,value
2018-03-15T00:02:28.552Z,19.00
2018-03-15T00:04:55.992Z,22.62
2018-03-15T00:07:24.217Z,18.90
2018-03-15T00:09:51.801Z,22.35
2018-03-15T00:12:19.268Z,21.70
2018-03-15T00:14:46.828Z,25.12
2018-03-15T00:17:14.320Z,18.85
2018-03-15T00:19:44.334Z,19.65
2018-03-15T00:22:12.573Z,23.52
2018-03-15T00:24:40.061Z,19.85
2018-03-15T00:27:08.366Z,23.00
2018-03-15T00:29:35.828Z,18.65
2018-03-15T00:32:03.309Z,22.00
2018-03-15T00:34:30.792Z,21.65
2018-03-15T00:36:58.246Z,24.77
2018-03-15T00:39:25.838Z,23.67
2018-03-15T00:41:53.276Z,21.83
2018-03-15T00:44:21.529Z,22.13
2018-03-15T00:46:48.993Z,22.80
2018-03-15T00:49:16.465Z,22.25
2018-03-15T00:51:45.440Z,23.85
2018-03-15T00:54:12.917Z,21.05
2018-03-15T00:56:40.377Z,22.33
2018-03-15T00:59:08.589Z,22.58
2018-03-15T01:01:36.261Z,22.90
2018-03-15T01:04:03.831Z,25.23
2018-03-15T01:06:31.292Z,23.52
2018-03-15T01:09:04.673Z,25.12
2018-03-15T01:11:32.145Z,23.05
2018-03-15T01:13:59.763Z,22.95
2018-03-15T01:16:27.200Z,25.20
2018-03-15T01:18:54.668Z,22.98
2018-03-15T01:21:22.945Z,23.17
2018-03-15T01:23:51.176Z,23.17
2018-03-15T01:26:18.620Z,19.90
2018-03-15T01:28:50.189Z,22.45
2018-03-15T01:31:17.639Z,21.35
2018-03-15T01:33:45.109Z,22.52
2018-03-15T01:36:12.576Z,22.98
2018-03-15T01:38:40.017Z,24.08
2018-03-15T01:41:07.567Z,25.27
2018-03-15T01:43:35.015Z,23.98
2018-03-15T01:46:03.793Z,21.00
2018-03-15T01:48:31.259Z,22.00
2018-03-15T01:50:58.716Z,22.83
2018-03-15T01:53:26.968Z,20.88
2018-03-15T01:55:54.433Z,19.15
2018-03-15T01:58:21.868Z,24.15
2018-03-15T02:00:50.179Z,21.95
2018-03-15T02:03:17.629Z,22.33
2018-03-15T02:05:45.286Z,19.83
2018-03-15T02:08:12.743Z,21.40
2018-03-15T02:10:40.227Z,18.08
2018-03-15T02:13:07.665Z,18.65
2018-03-15T02:15:35.293Z,21.12
2018-03-15T02:18:18.548Z,20.92
2018-03-15T02:20:49.790Z,19.52
2018-03-15T02:23:17.234Z,21.27
2018-03-15T02:25:45.485Z,19.05
2018-03-15T02:28:12.924Z,21.60
2018-03-15T02:30:40.397Z,19.87
2018-03-15T02:33:07.941Z,21.95
2018-03-15T02:35:35.398Z,24.60
2018-03-15T02:38:02.886Z,21.30
2018-03-15T02:40:30.357Z,19.40
2018-03-15T02:43:09.676Z,19.65
2018-03-15T02:45:37.157Z,20.75
2018-03-15T02:48:05.417Z,20.55
2018-03-15T02:50:32.896Z,21.35
2018-03-15T02:53:00.389Z,18.95
2018-03-15T02:55:27.964Z,19.00
2018-03-15T02:57:55.429Z,20.20
2018-03-15T03:00:31.716Z,22.52
2018-03-15T03:02:59.156Z,20.08
2018-03-15T03:05:26.618Z,19.73
2018-03-15T03:07:54.465Z,22.73
2018-03-15T03:10:21.937Z,20.00
2018-03-15T03:12:49.409Z,19.65
2018-03-15T03:15:16.893Z,17.33
2018-03-15T03:17:44.357Z,22.27
2018-03-15T03:20:11.820Z,19.27
2018-03-15T03:22:39.933Z,18.35
2018-03-15T03:25:07.408Z,23.27
2018-03-15T03:27:34.911Z,19.87
2018-03-15T03:30:02.340Z,21.25
2018-03-15T03:32:30.553Z,19.35
2018-03-15T03:34:58.192Z,20.45
2018-03-15T03:37:25.648Z,20.30
2018-03-15T03:39:53.137Z,21.15
2018-03-15T03:42:20.601Z,18.85
2018-03-15T03:44:48.036Z,18.12
2018-03-15T03:47:15.545Z,20.95
2018-03-15T03:49:47.922Z,20.60
2018-03-15T03:52:15.466Z,19.87
2018-03-15T03:54:42.932Z,16.77
2018-03-15T03:57:10.390Z,18.33
2018-03-15T04:02:29.589Z,16.95
2018-03-15T04:05:06.512Z,19.02
2018-03-15T04:07:34.008Z,17.85
2018-03-15T04:10:09.441Z,19.73
2018-03-15T04:12:36.887Z,18.60
2018-03-15T04:15:06.248Z,20.37
2018-03-15T04:17:35.472Z,20.65
2018-03-15T04:20:03.033Z,19.92
2018-03-15T04:22:30.493Z,16.98
2018-03-15T04:24:59.792Z,18.85
2018-03-15T04:27:29.881Z,17.25
2018-03-15T04:29:58.846Z,19.17
2018-03-15T04:32:27.333Z,17.62
2018-03-15T04:34:55.874Z,16.87
2018-03-15T04:37:24.091Z,18.00
2018-03-15T04:39:51.641Z,21.45
2018-03-15T04:42:19.083Z,17.83
2018-03-15T04:44:46.541Z,18.60
2018-03-15T04:47:14.029Z,18.80
2018-03-15T04:49:41.537Z,18.73
2018-03-15T04:52:08.978Z,17.40
2018-03-15T04:54:39.033Z,16.42
2018-03-15T04:57:14.158Z,17.52
2018-03-15T04:59:41.647Z,20.73
2018-03-15T05:02:09.088Z,17.42
2018-03-15T05:04:36.621Z,16.65
2018-03-15T05:07:04.235Z,17.60
2018-03-15T05:09:36.867Z,15.10
2018-03-15T05:12:05.261Z,16.95
2018-03-15T05:14:33.631Z,15.88
2018-03-15T05:17:02.898Z,17.87
2018-03-15T05:19:31.938Z,19.40
2018-03-15T05:22:04.128Z,17.85
2018-03-15T05:24:50.405Z,14.93
2018-03-15T05:27:18.517Z,15.73
2018-03-15T05:29:57.923Z,17.02
2018-03-15T05:32:25.380Z,19.12
2018-03-15T05:34:52.836Z,15.60
2018-03-15T05:37:20.448Z,14.77
2018-03-15T05:39:47.884Z,16.25
2018-03-15T05:42:16.237Z,14.85
2018-03-15T05:44:43.697Z,15.35
2018-03-15T05:47:11.149Z,17.35
2018-03-15T05:49:38.625Z,13.75
2018-03-15T05:52:06.197Z,14.70
2018-03-15T05:54:34.393Z,12.90
2018-03-15T05:57:01.828Z,15.25
2018-03-15T05:59:30.081Z,17.62
2018-03-15T06:01:57.523Z,14.52
2018-03-15T06:04:25.989Z,16.52
2018-03-15T06:06:53.635Z,14.75
2018-03-15T06:09:21.194Z,18.40
2018-03-15T06:11:48.697Z,15.68
2018-03-15T06:14:16.227Z,16.25
2018-03-15T06:16:44.170Z,15.18
2018-03-15T06:19:11.727Z,18.17
2018-03-15T06:21:39.819Z,16.05
2018-03-15T06:24:18.304Z,15.77
2018-03-15T06:26:46.520Z,15.70
2018-03-15T06:29:14.018Z,16.35
2018-03-15T06:31:41.476Z,15.52
2018-03-15T06:34:08.953Z,14.87
2018-03-15T06:36:37.184Z,15.00
2018-03-15T06:39:04.870Z,14.90
2018-03-15T06:41:32.325Z,15.75
2018-03-15T06:43:59.779Z,16.00
2018-03-15T06:46:27.266Z,16.55
2018-03-15T06:48:55.483Z,16.30
2018-03-15T06:51:22.985Z,15.05
2018-03-15T06:54:14.713Z,16.85
2018-03-15T06:56:42.929Z,14.80
2018-03-15T06:59:10.426Z,17.00
2018-03-15T07:01:37.894Z,16.90
2018-03-15T07:04:05.349Z,14.50
2018-03-15T07:06:33.518Z,16.25
2018-03-15T07:09:00.985Z,16.95
2018-03-15T07:11:28.484Z,15.32
2018-03-15T07:13:55.926Z,18.08
2018-03-15T07:16:23.408Z,16.52
2018-03-15T07:18:50.866Z,16.87
2018-03-15T07:21:18.339Z,17.83
2018-03-15T07:23:45.793Z,16.90
2018-03-15T07:26:13.360Z,23.83
2018-03-15T07:28:40.836Z,18.98
2018-03-15T07:31:08.292Z,18.17
2018-03-15T07:33:35.779Z,21.80
2018-03-15T07:36:04.041Z,18.98
2018-03-15T07:38:31.499Z,19.02
2018-03-15T07:40:59.045Z,15.93
2018-03-15T07:43:26.484Z,23.75
2018-03-15T07:45:53.993Z,17.87
2018-03-15T07:48:21.473Z,19.70
2018-03-15T07:50:48.935Z,19.55
2018-03-15T07:53:16.615Z,26.10
2018-03-15T07:55:44.078Z,16.75
2018-03-15T07:58:11.529Z,14.43
2018-03-15T08:00:50.939Z,17.12
2018-03-15T08:03:18.426Z,16.45
2018-03-15T08:05:45.852Z,15.65
2018-03-15T08:08:13.298Z,16.20
2018-03-15T08:10:41.625Z,16.10
2018-03-15T08:13:09.180Z,14.93
2018-03-15T08:15:36.649Z,20.45
2018-03-15T08:18:04.137Z,21.80
2018-03-15T08:20:32.482Z,14.10
2018-03-15T08:22:59.942Z,19.45
2018-03-15T08:25:27.449Z,16.17
2018-03-15T08:27:54.913Z,15.40
2018-03-15T08:30:22.373Z,14.02
2018-03-15T08:32:49.928Z,17.20
2018-03-15T08:35:17.390Z,12.43
2018-03-15T08:37:44.886Z,15.57
2018-03-15T08:40:12.348Z,13.07
2018-03-15T08:42:40.047Z,14.18
2018-03-15T08:45:08.269Z,15.50
2018-03-15T08:47:35.781Z,11.90
2018-03-15T08:50:03.998Z,13.45
2018-03-15T08:52:31.456Z,12.23
2018-03-15T08:54:59.734Z,13.77
2018-03-15T08:57:27.209Z,14.65
2018-03-15T08:59:54.705Z,13.00
2018-03-15T09:02:22.438Z,13.48
2018-03-15T09:04:49.900Z,13.25
2018-03-15T09:07:17.458Z,11.27
2018-03-15T09:09:44.932Z,11.82
2018-03-15T09:12:12.391Z,11.73
2018-03-15T09:14:40.014Z,10.32
2018-03-15T09:17:07.498Z,12.20
2018-03-15T09:19:35.039Z,12.80
2018-03-15T09:22:02.555Z,10.95
2018-03-15T09:24:30.003Z,14.20
2018-03-15T09:26:57.453Z,12.80
2018-03-15T09:29:25.279Z,10.70
2018-03-15T09:31:52.734Z,11.70
2018-03-15T09:34:20.206Z,10.88
2018-03-15T09:36:47.698Z,12.18
2018-03-15T09:39:15.936Z,10.20
2018-03-15T09:41:43.385Z,10.35
2018-03-15T09:44:10.953Z,9.55
2018-03-15T09:46:38.430Z,13.35
2018-03-15T09:49:06.733Z,9.48
2018-03-15T09:51:35.031Z,11.27
2018-03-15T09:54:02.481Z,9.85
2018-03-15T09:56:29.987Z,10.50
2018-03-15T09:58:57.463Z,10.55
2018-03-15T10:01:24.938Z,9.98
2018-03-15T10:03:53.295Z,10.40
2018-03-15T10:06:20.776Z,8.52
2018-03-15T10:08:48.984Z,9.85
2018-03-15T10:11:19.153Z,10.57
2018-03-15T10:13:46.613Z,10.30
2018-03-15T10:16:14.067Z,10.05
2018-03-15T10:18:41.660Z,9.05
2018-03-15T10:21:09.212Z,9.15
2018-03-15T10:23:36.681Z,8.65
2018-03-15T10:26:04.154Z,8.63
2018-03-15T10:28:31.640Z,9.10
2018-03-15T10:30:59.168Z,9.25
2018-03-15T10:33:32.596Z,9.65
2018-03-15T10:36:00.086Z,8.55
2018-03-15T10:38:28.305Z,10.15
2018-03-15T10:40:55.957Z,9.70
2018-03-15T10:43:23.425Z,10.02
2018-03-15T10:45:50.895Z,8.02
2018-03-15T10:48:18.382Z,9.60
2018-03-15T10:50:45.846Z,10.02
2018-03-15T10:53:13.381Z,9.05
2018-03-15T10:55:40.854Z,8.77
2018-03-15T10:58:08.337Z,8.40
2018-03-15T11:00:41.525Z,8.68
2018-03-15T11:03:16.819Z,9.10
2018-03-15T11:05:47.745Z,8.52
2018-03-15T11:08:21.014Z,10.55
2018-03-15T11:10:48.598Z,8.27
2018-03-15T11:13:16.062Z,8.30
2018-03-15T11:15:43.743Z,8.35
2018-03-15T11:18:11.237Z,10.45
2018-03-15T11:20:39.513Z,8.52
2018-03-15T11:23:07.730Z,7.82
2018-03-15T11:25:35.223Z,9.98
2018-03-15T11:28:02.717Z,9.38
2018-03-15T11:30:30.175Z,8.32
2018-03-15T11:32:58.534Z,7.40
2018-03-15T11:35:25.981Z,7.75
2018-03-15T11:37:53.430Z,8.05
2018-03-15T11:40:20.951Z,8.20
2018-03-15T11:42:48.484Z,8.35
2018-03-15T11:45:16.738Z,8.68
2018-03-15T11:47:44.204Z,8.25
2018-03-15T11:50:11.792Z,7.10
2018-03-15T11:52:39.267Z,8.48
2018-03-15T11:55:06.752Z,8.70
2018-03-15T11:57:34.285Z,8.30
2018-03-15T12:00:01.767Z,8.55
2018-03-15T12:02:30.127Z,8.32
2018-03-15T12:04:57.630Z,7.35
2018-03-15T12:07:25.161Z,6.85
2018-03-15T12:09:52.805Z,7.37
2018-03-15T12:12:20.254Z,8.05
2018-03-15T12:14:47.698Z,7.90
2018-03-15T12:17:15.244Z,7.62
2018-03-15T12:19:43.599Z,7.78
2018-03-15T12:22:11.351Z,7.30
2018-03-15T12:24:38.826Z,8.32
2018-03-15T12:27:06.310Z,6.87
2018-03-15T12:29:33.794Z,7.00
2018-03-15T12:32:01.291Z,8.57
2018-03-15T12:34:28.744Z,7.32
2018-03-15T12:36:56.319Z,7.25
2018-03-15T12:39:23.770Z,8.82
2018-03-15T12:41:51.243Z,7.25
2018-03-15T12:44:19.525Z,11.02
2018-03-15T12:46:48.205Z,7.18
2018-03-15T12:49:15.673Z,8.15
2018-03-15T12:51:43.902Z,6.50
2018-03-15T12:54:11.437Z,6.28
2018-03-15T12:56:38.947Z,7.30
2018-03-15T12:59:06.413Z,8.77
2018-03-15T13:01:34.693Z,7.82
2018-03-15T13:04:02.194Z,6.82
2018-03-15T13:06:29.987Z,7.90
2018-03-15T13:08:57.450Z,6.95
2018-03-15T13:11:25.056Z,7.70
2018-03-15T13:13:52.509Z,7.85
2018-03-15T13:16:20.006Z,8.35
2018-03-15T13:18:47.454Z,7.07
2018-03-15T13:21:15.458Z,7.22
2018-03-15T13:23:42.933Z,8.10
2018-03-15T13:26:11.222Z,6.90
2018-03-15T13:28:39.466Z,7.22
2018-03-15T13:31:06.927Z,9.07
2018-03-15T13:33:34.444Z,7.43
2018-03-15T13:36:01.901Z,6.72
2018-03-15T13:38:29.372Z,6.90
2018-03-15T13:40:57.026Z,7.45
2018-03-15T13:43:25.252Z,6.70
2018-03-15T13:45:52.694Z,9.90
2018-03-15T13:48:20.245Z,7.53
2018-03-15T13:50:47.719Z,6.78
2018-03-15T13:53:15.179Z,6.00
2018-03-15T13:55:43.711Z,6.50
2018-03-15T13:58:11.232Z,6.62
2018-03-15T14:00:39.461Z,6.40
2018-03-15T14:03:06.946Z,7.93
2018-03-15T14:05:35.047Z,6.20
2018-03-15T14:08:02.545Z,6.50
2018-03-15T14:10:30.001Z,6.68
2018-03-15T14:12:57.627Z,6.10
2018-03-15T14:15:25.129Z,6.65
2018-03-15T14:17:52.614Z,8.38
2018-03-15T14:20:20.110Z,6.50
2018-03-15T14:22:47.578Z,6.65
2018-03-15T14:25:15.172Z,5.85
2018-03-15T14:27:42.645Z,6.30
2018-03-15T14:30:11.653Z,7.15
2018-03-15T14:32:40.086Z,13.30
2018-03-15T14:35:07.597Z,6.93
2018-03-15T14:37:35.827Z,7.85
2018-03-15T14:40:03.345Z,18.52
2018-03-15T14:42:30.829Z,7.62
2018-03-15T14:44:58.323Z,52.13
2018-03-15T14:47:25.826Z,5.32
2018-03-15T14:49:54.399Z,6.62
2018-03-15T14:52:22.614Z,7.00
2018-03-15T14:54:50.080Z,5.25
2018-03-15T14:57:17.572Z,5.45
2018-03-15T14:59:45.196Z,5.28
2018-03-15T15:02:12.775Z,5.45
2018-03-15T15:04:40.303Z,5.95
2018-03-15T15:07:08.102Z,5.25
2018-03-15T15:09:35.578Z,5.57
2018-03-15T15:12:03.058Z,5.80
2018-03-15T15:14:30.617Z,6.87
2018-03-15T15:16:58.062Z,5.68
2018-03-15T15:19:26.288Z,4.90
2018-03-15T15:21:54.277Z,5.80
2018-03-15T15:24:21.741Z,5.97
2018-03-15T15:26:49.202Z,6.05
2018-03-15T15:29:16.801Z,5.35
2018-03-15T15:31:44.391Z,5.00
2018-03-15T15:34:11.861Z,6.72
2018-03-15T15:36:39.333Z,6.93
2018-03-15T15:39:06.805Z,5.40
2018-03-15T15:41:34.258Z,6.18
2018-03-15T15:44:01.733Z,6.95
2018-03-15T15:46:29.441Z,6.53
2018-03-15T15:48:56.890Z,4.87
2018-03-15T15:51:24.403Z,7.20
2018-03-15T15:53:51.854Z,10.25
2018-03-15T15:56:19.316Z,7.57
2018-03-15T15:58:46.831Z,6.70
2018-03-15T16:01:14.265Z,6.20
2018-03-15T16:03:41.731Z,6.37
2018-03-15T16:06:09.283Z,6.55
2018-03-15T16:08:36.765Z,30.50
2018-03-15T16:11:04.227Z,10.60
2018-03-15T16:13:31.850Z,9.63
2018-03-15T16:15:59.294Z,7.53
2018-03-15T16:18:27.534Z,7.00
2018-03-15T16:20:56.107Z,7.75
2018-03-15T16:23:23.588Z,6.07
2018-03-15T16:25:51.083Z,6.43
2018-03-15T16:28:20.993Z,7.03
2018-03-15T16:30:49.375Z,6.72
2018-03-15T16:33:16.844Z,6.37
2018-03-15T16:35:45.608Z,6.25
2018-03-15T16:38:13.868Z,5.65
2018-03-15T16:40:41.360Z,6.50
2018-03-15T16:43:08.882Z,6.72
2018-03-15T16:45:36.260Z,7.85
2018-03-15T16:48:05.906Z,6.87
2018-03-15T16:50:33.364Z,8.02
2018-03-15T16:53:00.973Z,6.45
2018-03-15T16:55:28.420Z,7.40
2018-03-15T16:57:55.872Z,8.30
2018-03-15T17:00:23.362Z,8.30
2018-03-15T17:02:51.633Z,7.50
2018-03-15T17:05:19.891Z,10.13
2018-03-15T17:07:48.137Z,6.57
2018-03-15T17:10:15.813Z,6.55
2018-03-15T17:12:43.320Z,6.20
2018-03-15T17:15:10.775Z,5.78
2018-03-15T17:17:38.984Z,5.72
2018-03-15T17:20:06.538Z,9.48
2018-03-15T17:22:34.001Z,6.80
2018-03-15T17:25:01.452Z,5.20
2018-03-15T17:27:28.920Z,5.35
2018-03-15T17:29:56.457Z,5.95
2018-03-15T17:32:23.880Z,5.97
2018-03-15T17:34:51.459Z,7.97
2018-03-15T17:37:19.649Z,6.18
2018-03-15T17:39:47.413Z,5.60
2018-03-15T17:42:14.870Z,5.18
2018-03-15T17:44:42.409Z,6.87
2018-03-15T17:47:10.645Z,5.60
2018-03-15T17:49:38.135Z,7.03
2018-03-15T17:55:03.274Z,7.60
2018-03-15T17:57:31.486Z,5.95
2018-03-15T17:59:59.017Z,11.93
2018-03-15T18:19:48.558Z,9.98
2018-03-15T18:22:16.033Z,8.98
2018-03-15T18:24:43.498Z,8.05
2018-03-15T18:33:15.371Z,14.80
2018-03-15T18:35:42.825Z,12.48
2018-03-15T18:43:54.906Z,21.40
2018-03-15T18:46:23.140Z,13.90
2018-03-15T18:48:50.620Z,18.17
2018-03-15T18:51:27.978Z,18.12
2018-03-15T18:53:55.465Z,7.62
2018-03-15T18:56:22.941Z,9.80
2018-03-15T18:58:51.150Z,11.27
2018-03-15T19:01:18.655Z,11.82
2018-03-15T19:03:46.149Z,14.35
2018-03-15T19:06:13.624Z,12.65
2018-03-15T19:08:41.106Z,12.73
2018-03-15T19:11:08.780Z,11.12
2018-03-15T19:13:36.314Z,10.50
2018-03-15T19:16:03.765Z,12.57
2018-03-15T19:18:31.201Z,10.50
2018-03-15T19:23:49.486Z,14.20
2018-03-15T19:26:16.955Z,14.95
2018-03-15T19:28:44.503Z,16.33
2018-03-15T19:31:11.974Z,13.23
2018-03-15T19:33:39.988Z,21.52
2018-03-15T19:56:02.644Z,13.80
2018-03-15T19:58:34.997Z,14.10
2018-03-15T20:01:02.582Z,11.80
2018-03-15T20:03:30.125Z,14.75
2018-03-15T20:05:58.486Z,14.70
2018-03-15T20:08:25.968Z,14.45
2018-03-15T20:10:53.461Z,15.18
2018-03-15T20:13:20.941Z,12.75
2018-03-15T20:15:49.358Z,13.35
2018-03-15T20:18:16.882Z,14.35
2018-03-15T20:37:53.339Z,13.60
2018-03-15T20:40:26.647Z,15.73
2018-03-15T20:42:54.113Z,15.45
2018-03-15T20:45:27.286Z,16.27
2018-03-15T20:48:01.217Z,15.63
2018-03-15T21:07:34.526Z,16.67
2018-03-15T21:10:02.019Z,15.88
2018-03-15T21:12:29.481Z,16.33
2018-03-15T21:32:00.871Z,18.95
2018-03-15T21:51:36.308Z,20.92
2018-03-15T21:54:03.910Z,18.58
2018-03-15T21:56:31.415Z,18.70
2018-03-15T21:58:58.954Z,19.80
2018-03-15T22:01:26.423Z,18.83
2018-03-15T22:03:53.996Z,20.70
2018-03-15T22:06:21.482Z,16.60
2018-03-15T22:08:49.891Z,20.58
2018-03-15T22:11:17.539Z,18.67
2018-03-15T22:30:50.479Z,22.10
2018-03-15T22:50:24.292Z,21.98
2018-03-15T23:09:57.399Z,19.25
2018-03-15T23:29:30.307Z,24.15
2018-03-15T23:31:57.867Z,19.98
2018-03-15T23:34:25.405Z,22.13
2018-03-15T23:36:53.752Z,21.85
2018-03-15T23:39:25.107Z,22.20
2018-03-15T23:41:54.006Z,23.00
2018-03-15T23:44:21.489Z,22.60
2018-03-15T23:46:49.813Z,21.95
2018-03-15T23:49:17.310Z,24.52
2018-03-15T23:51:44.848Z,26.27
